createdAt,value
2019-05-18T00:03:30.749Z,10.00
2019-05-18T00:07:42.430Z,10.17
2019-05-18T00:11:54.234Z,9.87
2019-05-18T00:16:06.195Z,8.27
2019-05-18T00:20:18.188Z,9.57
2019-05-18T00:24:30.050Z,10.37
2019-05-18T00:28:41.855Z,10.40
2019-05-18T00:32:53.653Z,8.50
2019-05-18T00:37:05.265Z,9.33
2019-05-18T00:41:17.278Z,11.33
2019-05-18T00:45:29.370Z,10.50
2019-05-18T00:49:41.112Z,10.93
2019-05-18T00:53:53.077Z,10.80
2019-05-18T00:58:05.025Z,10.60
2019-05-18T01:02:16.888Z,9.30
2019-05-18T01:06:28.924Z,9.57
2019-05-18T01:10:40.897Z,9.47
2019-05-18T01:14:52.680Z,9.47
2019-05-18T01:19:04.637Z,9.13
2019-05-18T01:23:16.500Z,9.40
2019-05-18T01:27:28.310Z,9.20
2019-05-18T01:31:39.909Z,9.57
2019-05-18T01:35:51.679Z,9.83
2019-05-18T01:40:03.704Z,12.13
2019-05-18T01:44:15.653Z,11.10
2019-05-18T01:48:27.609Z,12.20
2019-05-18T01:52:39.454Z,12.13
2019-05-18T01:56:51.307Z,11.50
2019-05-18T02:01:02.906Z,9.20
2019-05-18T02:05:14.920Z,9.00
2019-05-18T02:09:26.597Z,9.30
2019-05-18T02:13:38.418Z,9.70
2019-05-18T02:17:50.309Z,12.07
2019-05-18T02:22:02.268Z,12.00
2019-05-18T02:26:14.313Z,11.83
2019-05-18T02:30:26.332Z,11.10
2019-05-18T02:34:38.126Z,10.77
2019-05-18T02:38:49.933Z,9.97
2019-05-18T02:43:01.835Z,10.93
2019-05-18T02:47:13.578Z,11.40
2019-05-18T02:51:25.238Z,12.37
2019-05-18T02:55:37.125Z,12.47
2019-05-18T02:59:50.111Z,14.00
2019-05-18T03:04:01.793Z,13.10
2019-05-18T03:08:13.553Z,12.60
2019-05-18T03:12:25.505Z,12.50
2019-05-18T03:16:37.602Z,13.97
2019-05-18T03:20:49.381Z,13.63
2019-05-18T03:25:01.286Z,13.37
2019-05-18T03:29:13.191Z,12.63
2019-05-18T03:33:29.352Z,13.20
2019-05-18T03:37:38.632Z,12.77
2019-05-18T03:41:50.686Z,16.37
2019-05-18T03:46:02.650Z,16.30
2019-05-18T03:50:14.644Z,15.87
2019-05-18T03:54:26.269Z,16.53
2019-05-18T03:58:39.149Z,17.53
2019-05-18T04:02:50.967Z,17.97
2019-05-18T04:07:02.781Z,17.60
2019-05-18T04:11:14.491Z,18.20
2019-05-18T04:15:26.179Z,19.97
2019-05-18T04:19:46.199Z,19.23
2019-05-18T04:23:51.530Z,18.67
2019-05-18T04:28:03.481Z,20.77
2019-05-18T04:32:15.328Z,20.70
2019-05-18T04:36:27.121Z,20.27
2019-05-18T04:40:39.080Z,19.53
2019-05-18T04:44:51.193Z,18.23
2019-05-18T04:49:03.850Z,17.60
2019-05-18T04:53:15.654Z,18.23
2019-05-18T04:57:27.469Z,20.37
2019-05-18T05:01:39.213Z,18.73
2019-05-18T05:05:51.069Z,18.07
2019-05-18T05:10:04.727Z,19.07
2019-05-18T05:14:16.206Z,19.43
2019-05-18T05:18:28.004Z,21.07
2019-05-18T05:22:39.808Z,20.53
2019-05-18T05:26:51.611Z,19.93
2019-05-18T05:31:03.481Z,19.63
2019-05-18T05:35:15.555Z,20.07
2019-05-18T05:39:27.525Z,20.43
2019-05-18T05:43:39.371Z,20.97
2019-05-18T05:47:51.588Z,18.90
2019-05-18T05:52:03.443Z,20.30
2019-05-18T05:56:15.044Z,19.23
2019-05-18T06:00:26.786Z,18.27
2019-05-18T06:04:38.689Z,18.90
2019-05-18T06:08:50.554Z,17.47
2019-05-18T06:13:02.348Z,17.90
2019-05-18T06:17:14.241Z,18.30
2019-05-18T06:21:26.052Z,17.80
2019-05-18T06:25:37.949Z,18.10
2019-05-18T06:29:49.781Z,18.17
2019-05-18T06:34:01.556Z,18.57
2019-05-18T06:38:14.483Z,19.67
2019-05-18T06:42:26.402Z,19.43
2019-05-18T06:46:38.349Z,17.30
2019-05-18T06:50:50.401Z,18.03
2019-05-18T06:55:02.207Z,18.33
2019-05-18T06:59:16.436Z,17.07
2019-05-18T07:03:28.485Z,16.67
2019-05-18T07:07:41.556Z,15.47
2019-05-18T07:11:56.100Z,16.97
2019-05-18T07:16:06.797Z,16.50
2019-05-18T07:20:19.164Z,15.27
2019-05-18T07:24:30.952Z,15.30
2019-05-18T07:28:42.772Z,14.30
2019-05-18T07:32:54.373Z,15.87
2019-05-18T07:37:06.309Z,16.97
2019-05-18T07:41:18.743Z,16.03
2019-05-18T07:45:31.336Z,15.57
2019-05-18T07:49:43.113Z,16.43
2019-05-18T07:53:54.817Z,15.30
2019-05-18T07:58:06.788Z,15.10
2019-05-18T08:02:18.602Z,15.47
2019-05-18T08:06:30.406Z,16.10
2019-05-18T08:10:43.795Z,15.57
2019-05-18T08:14:56.008Z,16.97
2019-05-18T08:19:07.847Z,15.33
2019-05-18T08:23:19.657Z,15.97
2019-05-18T08:27:31.547Z,15.37
2019-05-18T08:31:43.354Z,15.00
2019-05-18T08:35:55.185Z,15.90
2019-05-18T08:40:07.651Z,15.80
2019-05-18T08:44:19.719Z,14.70
2019-05-18T08:48:31.494Z,12.60
2019-05-18T08:52:43.163Z,13.93
2019-05-18T08:56:56.110Z,12.33
2019-05-18T09:01:07.914Z,14.33
2019-05-18T09:05:19.708Z,14.87
2019-05-18T09:09:31.619Z,15.40
2019-05-18T09:13:43.587Z,15.77
2019-05-18T09:17:55.239Z,16.40
2019-05-18T09:22:06.916Z,16.73
2019-05-18T09:26:18.708Z,14.83
2019-05-18T09:30:30.509Z,12.63
2019-05-18T09:34:42.327Z,14.50
2019-05-18T09:38:53.928Z,13.43
2019-05-18T09:43:05.777Z,12.87
2019-05-18T09:47:17.730Z,14.67
2019-05-18T09:51:29.643Z,15.17
2019-05-18T09:55:41.528Z,14.83
2019-05-18T09:59:53.336Z,14.93
2019-05-18T10:04:05.383Z,14.20
2019-05-18T10:08:17.238Z,12.80
2019-05-18T10:12:29.949Z,13.53
2019-05-18T10:16:41.817Z,12.37
2019-05-18T10:20:53.719Z,12.97
2019-05-18T10:25:05.673Z,12.60
2019-05-18T10:29:17.466Z,12.57
2019-05-18T10:33:29.263Z,15.87
2019-05-18T10:37:42.097Z,16.20
2019-05-18T10:41:53.899Z,18.23
2019-05-18T10:46:05.871Z,18.27
2019-05-18T10:50:17.859Z,17.23
2019-05-18T10:54:29.711Z,17.30
2019-05-18T10:58:41.524Z,15.93
2019-05-18T11:02:53.126Z,17.17
2019-05-18T11:07:04.919Z,15.60
2019-05-18T11:11:16.714Z,15.63
2019-05-18T11:15:28.513Z,17.30
2019-05-18T11:19:40.380Z,16.07
2019-05-18T11:23:52.215Z,17.30
2019-05-18T11:28:05.080Z,16.30
2019-05-18T11:32:16.850Z,16.73
2019-05-18T11:36:28.750Z,14.07
2019-05-18T11:40:40.549Z,14.47
2019-05-18T11:44:52.562Z,13.70
2019-05-18T11:49:04.512Z,15.13
2019-05-18T11:53:16.368Z,13.33
2019-05-18T11:57:29.190Z,14.27
2019-05-18T12:01:40.986Z,14.60
2019-05-18T12:05:52.789Z,13.80
2019-05-18T12:10:04.406Z,14.50
2019-05-18T12:14:16.196Z,13.63
2019-05-18T12:18:29.137Z,12.80
2019-05-18T12:22:41.018Z,13.30
2019-05-18T12:26:52.640Z,12.87
2019-05-18T12:31:04.478Z,12.93
2019-05-18T12:35:16.319Z,13.10
2019-05-18T12:39:28.124Z,13.13
2019-05-18T12:43:39.938Z,15.27
2019-05-18T12:47:52.320Z,13.20
2019-05-18T12:52:04.292Z,14.03
2019-05-18T12:56:16.147Z,13.43
2019-05-18T13:00:30.462Z,13.77
2019-05-18T13:04:42.302Z,12.23
2019-05-18T13:08:54.116Z,13.17
2019-05-18T13:13:06.009Z,13.63
2019-05-18T13:17:17.615Z,13.57
2019-05-18T13:21:29.356Z,12.03
2019-05-18T13:25:41.224Z,10.00
2019-05-18T13:29:54.041Z,5.23
2019-05-18T13:34:05.636Z,7.10
2019-05-18T13:38:17.425Z,5.27
2019-05-18T13:42:29.227Z,5.10
2019-05-18T13:46:41.228Z,4.57
2019-05-18T13:50:53.040Z,4.60
2019-05-18T13:55:05.350Z,6.33
2019-05-18T13:59:17.737Z,6.63
2019-05-18T14:03:29.800Z,6.23
2019-05-18T14:07:41.829Z,6.77
2019-05-18T14:11:53.680Z,6.43
2019-05-18T14:16:05.631Z,6.50
2019-05-18T14:20:18.285Z,5.70
2019-05-18T14:24:30.080Z,4.80
2019-05-18T14:28:42.000Z,5.07
2019-05-18T14:32:53.817Z,5.33
2019-05-18T14:37:05.632Z,5.80
2019-05-18T14:41:17.225Z,6.37
2019-05-18T14:45:28.909Z,6.37
2019-05-18T14:49:41.030Z,7.27
2019-05-18T14:53:52.920Z,6.13
2019-05-18T14:58:04.895Z,6.83
2019-05-18T15:02:16.728Z,7.70
2019-05-18T15:06:28.529Z,7.93
2019-05-18T15:10:40.333Z,6.83
2019-05-18T15:14:51.929Z,7.43
2019-05-18T15:19:03.654Z,8.37
2019-05-18T15:23:15.421Z,8.23
2019-05-18T15:27:27.291Z,8.30
2019-05-18T15:31:39.129Z,9.47
2019-05-18T15:35:50.929Z,9.03
2019-05-18T15:40:02.763Z,10.00
2019-05-18T15:44:14.344Z,10.17
2019-05-18T15:48:26.312Z,9.27
2019-05-18T15:52:38.137Z,8.67
2019-05-18T15:56:49.929Z,9.80
2019-05-18T16:01:01.836Z,10.80
2019-05-18T16:05:13.941Z,11.70
2019-05-18T16:09:25.859Z,11.57
2019-05-18T16:13:37.658Z,12.23
2019-05-18T16:17:49.453Z,12.10
2019-05-18T16:22:01.054Z,12.17
2019-05-18T16:26:21.122Z,11.93
2019-05-18T16:30:26.269Z,13.23
2019-05-18T16:34:38.093Z,11.00
2019-05-18T16:38:50.041Z,10.67
2019-05-18T16:43:01.905Z,9.93
2019-05-18T16:47:13.759Z,10.23
2019-05-18T16:51:25.461Z,9.43
2019-05-18T16:55:37.719Z,9.23
2019-05-18T16:59:49.738Z,9.80
2019-05-18T17:04:01.381Z,9.23
2019-05-18T17:08:13.217Z,9.43
2019-05-18T17:12:25.009Z,8.03
2019-05-18T17:16:36.826Z,10.07
2019-05-18T17:20:48.610Z,9.13
2019-05-18T17:25:00.425Z,8.27
2019-05-18T17:29:12.032Z,9.03
2019-05-18T17:33:23.780Z,8.47
2019-05-18T17:37:35.619Z,8.80
2019-05-18T17:41:47.414Z,9.30
2019-05-18T17:45:59.239Z,8.67
2019-05-18T17:50:11.836Z,9.13
2019-05-18T17:54:23.653Z,8.10
2019-05-18T17:58:35.539Z,8.17
2019-05-18T18:02:48.248Z,9.17
2019-05-18T18:07:00.248Z,8.73
2019-05-18T18:11:12.131Z,9.40
2019-05-18T18:15:23.900Z,8.90
2019-05-18T18:19:35.784Z,9.53
2019-05-18T18:23:54.264Z,10.77
2019-05-18T18:28:01.225Z,9.27
2019-05-18T18:32:13.228Z,8.67
2019-05-18T18:36:26.025Z,7.70
2019-05-18T18:40:37.877Z,7.40
2019-05-18T18:44:49.860Z,8.00
2019-05-18T18:49:02.013Z,8.13
2019-05-18T18:53:13.991Z,8.00
2019-05-18T18:57:40.096Z,8.60
2019-05-18T19:01:39.324Z,9.03
2019-05-18T19:05:51.122Z,8.47
2019-05-18T19:10:03.078Z,7.37
2019-05-18T19:14:14.928Z,7.97
2019-05-18T19:18:26.750Z,8.10
2019-05-18T19:22:38.660Z,8.50
2019-05-18T19:26:50.334Z,9.90
2019-05-18T19:31:02.232Z,9.10
2019-05-18T19:35:14.145Z,11.10
2019-05-18T19:39:27.033Z,12.23
2019-05-18T19:43:38.664Z,13.07
2019-05-18T19:47:50.352Z,13.50
2019-05-18T19:52:02.314Z,13.53
2019-05-18T19:56:14.160Z,12.90
2019-05-18T20:00:26.170Z,14.30
2019-05-18T20:04:37.982Z,13.27
2019-05-18T20:08:49.873Z,13.33
2019-05-18T20:13:01.753Z,13.60
2019-05-18T20:17:13.698Z,13.90
2019-05-18T20:21:25.315Z,14.70
2019-05-18T20:25:37.084Z,14.07
2019-05-18T20:29:48.885Z,14.03
2019-05-18T20:34:00.701Z,15.17
2019-05-18T20:38:12.597Z,14.20
2019-05-18T20:42:24.568Z,13.90
2019-05-18T20:46:36.421Z,16.40
2019-05-18T20:50:48.364Z,15.03
2019-05-18T20:55:00.126Z,15.33
2019-05-18T20:59:12.920Z,15.97
2019-05-18T21:03:24.726Z,15.97
2019-05-18T21:07:36.584Z,16.33
2019-05-18T21:11:48.244Z,17.70
2019-05-18T21:16:00.089Z,17.97
2019-05-18T21:20:12.324Z,17.33
2019-05-18T21:24:24.237Z,17.33
2019-05-18T21:28:36.044Z,16.73
2019-05-18T21:32:47.854Z,18.00
2019-05-18T21:36:59.647Z,18.10
2019-05-18T21:41:11.457Z,19.30
2019-05-18T21:45:23.131Z,18.07
2019-05-18T21:49:34.958Z,18.97
2019-05-18T21:53:46.754Z,18.97
2019-05-18T21:57:58.547Z,18.97
2019-05-18T22:02:10.347Z,18.93
2019-05-18T22:06:22.353Z,18.80
2019-05-18T22:10:34.258Z,18.90
2019-05-18T22:14:46.070Z,19.47
2019-05-18T22:18:57.945Z,19.90
2019-05-18T22:23:09.603Z,20.50
2019-05-18T22:27:21.366Z,21.03
2019-05-18T22:31:33.172Z,19.57
2019-05-18T22:35:44.970Z,20.67
2019-05-18T22:39:56.772Z,20.20
2019-05-18T22:44:08.669Z,21.60
2019-05-18T22:48:20.648Z,20.47
2019-05-18T22:52:32.338Z,19.87
2019-05-18T22:56:45.248Z,19.40
2019-05-18T23:00:57.156Z,20.90
2019-05-18T23:05:09.024Z,21.50
2019-05-18T23:09:20.938Z,18.87
2019-05-18T23:13:33.244Z,19.03
2019-05-18T23:17:45.134Z,18.70
2019-05-18T23:21:56.804Z,17.13
2019-05-18T23:26:11.553Z,17.83
2019-05-18T23:30:23.098Z,19.10
2019-05-18T23:34:34.899Z,18.40
2019-05-18T23:38:46.726Z,19.10
2019-05-18T23:42:58.323Z,18.50
2019-05-18T23:47:10.289Z,18.57
2019-05-18T23:51:22.268Z,18.90
2019-05-18T23:55:34.413Z,19.30
2019-05-18T23:59:46.225Z,17.47
